Time;durP1;ratioP1;P1;durP2;ratioP2;P2;SDS_P1;SDS_P2;PMS_P1;PMS_P2;Temp;Humidity;BMP_temperature;BMP_pressure;BME280_temperature;BME280_humidity;BME280_pressure;Samples;Min_cycle;Max_cycle;Signal;HPM_P1;HPM_P2
2021/03/27 00:01:10;;;;;;;40.80;19.10;;;2.50;99.90;;;;;;4188585;28;20676;-62
2021/03/27 00:03:36;;;;;;;40.23;19.03;;;2.50;99.90;;;;;;4189239;28;20828;-61
2021/03/27 00:05:52;;;;;;;53.30;23.20;;;2.50;99.90;;;;;;4189003;28;20327;-64
2021/03/27 00:08:13;;;;;;;51.57;22.87;;;2.50;99.90;;;;;;4194949;28;20306;-62
2021/03/27 00:10:42;;;;;;;47.03;21.77;;;2.40;99.90;;;;;;4205899;28;20285;-64
2021/03/27 00:13:09;;;;;;;52.57;23.80;;;2.40;99.90;;;;;;4205150;28;20390;-62
2021/03/27 00:15:31;;;;;;;47.23;21.73;;;2.40;99.90;;;;;;4200628;28;20341;-63
2021/03/27 00:17:37;;;;;;;47.93;21.03;;;2.30;99.90;;;;;;4204499;28;20828;-62
2021/03/27 00:19:52;;;;;;;54.53;24.30;;;2.30;99.90;;;;;;4206316;28;20264;-66
2021/03/27 00:21:57;;;;;;;54.80;23.17;;;2.30;99.90;;;;;;4204518;28;20284;-65
2021/03/27 00:24:06;;;;;;;63.37;25.57;;;2.30;99.90;;;;;;4205749;28;20659;-63
2021/03/27 00:26:18;;;;;;;56.43;26.00;;;2.20;99.90;;;;;;4205199;28;20284;-62
2021/03/27 00:28:41;;;;;;;57.93;26.00;;;2.20;99.90;;;;;;4205920;28;20673;-63
2021/03/27 00:30:56;;;;;;;59.87;26.87;;;2.10;99.90;;;;;;4205220;28;20655;-63
2021/03/27 00:32:59;;;;;;;53.37;24.37;;;2.00;99.90;;;;;;4206122;28;20268;-63
2021/03/27 00:35:06;;;;;;;53.63;25.77;;;2.00;99.90;;;;;;4204591;28;20273;-60
2021/03/27 00:37:23;;;;;;;47.20;21.17;;;2.00;99.90;;;;;;4206051;28;20753;-63
2021/03/27 00:39:59;;;;;;;49.23;21.07;;;1.90;99.90;;;;;;4203952;28;21044;-63
2021/03/27 00:42:13;;;;;;;48.87;21.73;;;2.00;99.90;;;;;;4205652;28;20289;-63
2021/03/27 00:44:17;;;;;;;49.03;24.43;;;1.90;99.90;;;;;;4205453;28;20276;-62
2021/03/27 00:46:19;;;;;;;55.33;24.60;;;1.90;99.90;;;;;;4205424;28;20798;-60
2021/03/27 00:48:37;;;;;;;55.30;26.03;;;1.90;99.90;;;;;;4205031;28;20745;-63
2021/03/27 00:50:45;;;;;;;62.00;26.60;;;1.90;99.90;;;;;;4206023;28;20264;-62
2021/03/27 00:52:51;;;;;;;61.10;27.33;;;1.80;99.90;;;;;;4188436;28;20269;-63
2021/03/27 00:55:03;;;;;;;59.40;26.37;;;1.70;99.90;;;;;;4188693;28;20257;-65
2021/03/27 00:57:22;;;;;;;59.87;27.57;;;1.60;99.90;;;;;;4190340;28;20287;-63
2021/03/27 00:59:27;;;;;;;60.67;26.97;;;1.50;99.90;;;;;;4196978;28;20261;-62
2021/03/27 01:01:40;;;;;;;59.30;26.83;;;1.50;99.90;;;;;;4207979;28;20883;-64
2021/03/27 01:03:48;;;;;;;54.93;26.20;;;1.40;99.90;;;;;;4208343;28;20341;-61
2021/03/27 01:05:51;;;;;;;62.53;29.00;;;1.40;99.90;;;;;;4208348;28;20285;-63
2021/03/27 01:07:53;;;;;;;56.40;24.47;;;1.40;99.90;;;;;;4208854;28;20318;-63
2021/03/27 01:10:01;;;;;;;56.30;24.23;;;1.40;99.90;;;;;;4207865;28;20273;-65
2021/03/27 01:12:13;;;;;;;57.13;25.47;;;1.30;99.90;;;;;;4208899;28;20682;-62
2021/03/27 01:14:20;;;;;;;58.43;25.93;;;1.30;99.90;;;;;;4207528;28;20285;-65
2021/03/27 01:16:27;;;;;;;59.07;28.13;;;1.30;99.90;;;;;;4208438;28;20322;-62
2021/03/27 01:18:41;;;;;;;62.27;27.40;;;1.30;99.90;;;;;;4207544;28;20280;-63
2021/03/27 01:20:51;;;;;;;58.30;26.37;;;1.30;99.90;;;;;;4208119;28;20281;-63
2021/03/27 01:22:54;;;;;;;64.17;28.40;;;1.20;99.90;;;;;;4207606;28;20293;-62
2021/03/27 01:25:00;;;;;;;59.87;27.73;;;1.20;99.90;;;;;;4207247;28;20289;-62
2021/03/27 01:27:26;;;;;;;63.17;28.37;;;1.20;99.90;;;;;;4207985;28;20302;-64
2021/03/27 01:29:45;;;;;;;63.93;27.87;;;1.10;99.90;;;;;;4207938;28;20276;-62
2021/03/27 01:31:55;;;;;;;59.80;26.03;;;1.10;99.90;;;;;;4207685;28;20698;-66
2021/03/27 01:34:09;;;;;;;58.60;25.60;;;1.10;99.90;;;;;;4208893;28;20818;-62
2021/03/27 01:36:18;;;;;;;63.37;29.13;;;1.00;99.90;;;;;;4207759;28;20265;-61
2021/03/27 01:38:24;;;;;;;64.13;28.70;;;1.10;99.90;;;;;;4208072;28;20298;-63
2021/03/27 01:40:38;;;;;;;63.83;26.53;;;1.00;99.90;;;;;;4207609;28;20590;-62
2021/03/27 01:42:39;;;;;;;63.07;27.30;;;1.00;99.90;;;;;;4208216;28;20345;-64
2021/03/27 01:45:00;;;;;;;58.53;25.93;;;0.90;99.90;;;;;;4207448;28;20786;-61
2021/03/27 01:47:28;;;;;;;55.38;24.50;;;0.90;99.90;;;;;;4208179;28;20282;-62
2021/03/27 01:50:07;;;;;;;64.53;28.27;;;0.90;99.90;;;;;;4207751;28;20643;-64
2021/03/27 01:52:20;;;;;;;60.30;26.13;;;0.80;99.90;;;;;;4207593;28;20256;-62
2021/03/27 01:54:56;;;;;;;57.63;27.23;;;0.80;99.90;;;;;;4223319;28;20264;-63
2021/03/27 01:57:20;;;;;;;65.03;28.33;;;0.80;99.90;;;;;;4214626;28;20277;-63
2021/03/27 01:59:28;;;;;;;64.53;27.13;;;0.70;99.90;;;;;;4207647;28;20338;-63
2021/03/27 02:02:03;;;;;;;64.03;27.20;;;0.70;99.90;;;;;;4207370;28;20296;-64
2021/03/27 02:04:09;;;;;;;57.17;25.30;;;0.70;99.90;;;;;;4171871;28;20317;-61
2021/03/27 02:06:21;;;;;;;56.03;25.00;;;0.70;99.90;;;;;;4207220;28;20302;-64
2021/03/27 02:08:44;;;;;;;53.53;24.83;;;0.70;99.90;;;;;;4207028;28;20381;-64
2021/03/27 02:11:07;;;;;;;54.17;24.80;;;0.80;99.90;;;;;;4206280;28;20284;-63
2021/03/27 02:13:31;;;;;;;55.87;27.50;;;0.80;99.90;;;;;;4207323;28;20268;-62
2021/03/27 02:15:50;;;;;;;56.10;26.13;;;0.80;99.90;;;;;;4179887;28;20769;-61
2021/03/27 02:17:57;;;;;;;54.53;24.53;;;0.70;99.90;;;;;;4191383;28;20269;-63
2021/03/27 02:20:35;;;;;;;56.57;23.73;;;0.70;99.90;;;;;;4207328;28;20269;-62
2021/03/27 02:23:09;;;;;;;56.57;25.40;;;0.70;99.90;;;;;;4199776;28;20292;-62
2021/03/27 02:25:34;;;;;;;60.70;26.63;;;0.70;99.90;;;;;;4207560;28;20276;-64
2021/03/27 02:27:57;;;;;;;59.07;27.43;;;0.60;99.90;;;;;;4207051;28;20333;-67
2021/03/27 02:30:31;;;;;;;60.30;25.87;;;0.50;99.90;;;;;;4207501;28;20295;-63
2021/03/27 02:32:44;;;;;;;60.30;25.93;;;0.60;99.90;;;;;;4205555;28;20284;-68
2021/03/27 02:35:29;;;;;;;56.00;24.43;;;0.50;99.90;;;;;;4207114;28;20261;-62
2021/03/27 02:37:53;;;;;;;61.53;26.47;;;0.50;99.90;;;;;;4195265;28;20269;-64
2021/03/27 02:40:16;;;;;;;56.50;26.43;;;0.40;99.90;;;;;;4206074;28;20968;-66
2021/03/27 02:42:39;;;;;;;56.20;25.10;;;0.40;99.90;;;;;;4207169;28;20288;-61
2021/03/27 02:44:50;;;;;;;53.40;24.40;;;0.40;99.90;;;;;;4206621;28;20740;-63
2021/03/27 02:46:57;;;;;;;60.40;24.50;;;0.40;99.90;;;;;;4207411;28;20268;-63
2021/03/27 02:49:25;;;;;;;57.33;25.40;;;0.40;99.90;;;;;;4205910;28;20028;-68
2021/03/27 02:51:35;;;;;;;57.63;24.53;;;0.40;99.90;;;;;;4207167;28;20323;-63
2021/03/27 02:53:45;;;;;;;53.40;24.63;;;0.40;99.90;;;;;;4206083;28;20326;-62
2021/03/27 02:56:05;;;;;;;56.33;25.05;;;0.40;99.90;;;;;;4206832;28;20636;-62
2021/03/27 02:58:48;;;;;;;51.45;24.17;;;0.30;99.90;;;;;;4206603;28;20036;-64
2021/03/27 03:01:11;;;;;;;61.93;26.43;;;0.30;99.90;;;;;;4206235;28;20119;-65
2021/03/27 03:03:24;;;;;;;53.00;26.00;;;0.30;99.90;;;;;;4206807;28;20296;-63
2021/03/27 03:05:48;;;;;;;56.67;25.30;;;0.30;99.90;;;;;;4206025;28;20917;-64
2021/03/27 03:08:06;;;;;;;56.67;26.00;;;0.30;99.90;;;;;;4201413;28;20319;-63
2021/03/27 03:10:28;;;;;;;59.23;25.03;;;0.30;99.90;;;;;;4206124;28;20633;-62
2021/03/27 03:12:55;;;;;;;62.77;25.70;;;0.20;99.90;;;;;;4207427;28;20338;-64
2021/03/27 03:15:01;;;;;;;54.00;24.43;;;0.20;99.90;;;;;;4185606;28;20311;-61
2021/03/27 03:17:21;;;;;;;55.43;24.17;;;0.20;99.90;;;;;;4206850;28;20298;-67
2021/03/27 03:19:34;;;;;;;52.58;24.20;;;0.10;99.90;;;;;;4204285;28;20334;-62
2021/03/27 03:21:44;;;;;;;57.60;25.13;;;0.10;99.90;;;;;;4206640;28;20081;-61
2021/03/27 03:24:16;;;;;;;52.47;23.42;;;0.10;99.90;;;;;;4205872;28;20268;-61
2021/03/27 03:26:26;;;;;;;52.73;24.13;;;0.10;99.90;;;;;;4205731;28;20093;-62
2021/03/27 03:28:50;;;;;;;52.45;23.77;;;0.10;99.90;;;;;;4204507;28;20274;-62
2021/03/27 03:31:10;;;;;;;54.37;23.00;;;0.00;99.90;;;;;;4205961;28;20048;-60
2021/03/27 03:33:53;;;;;;;56.40;23.83;;;0.10;99.90;;;;;;4206001;28;20273;-64
2021/03/27 03:36:07;;;;;;;54.80;24.60;;;0.00;99.90;;;;;;4204450;28;20280;-63
2021/03/27 03:38:18;;;;;;;60.93;25.83;;;0.00;99.90;;;;;;4206435;28;20260;-61
2021/03/27 03:40:56;;;;;;;53.20;23.60;;;-0.10;99.90;;;;;;4205573;28;20270;-63
2021/03/27 03:43:06;;;;;;;57.00;24.10;;;-0.10;99.90;;;;;;4206789;28;20070;-63
2021/03/27 03:45:30;;;;;;;56.07;22.87;;;-0.10;99.90;;;;;;4205529;28;20269;-61
2021/03/27 03:47:51;;;;;;;52.03;22.07;;;-0.20;99.90;;;;;;4198708;28;20732;-61
2021/03/27 03:50:35;;;;;;;48.50;23.08;;;-0.20;99.90;;;;;;4194088;28;20276;-64
2021/03/27 03:52:52;;;;;;;48.77;21.70;;;-0.20;99.90;;;;;;4199809;28;20039;-63
2021/03/27 03:55:13;;;;;;;49.93;20.30;;;-0.30;99.90;;;;;;4205701;28;20326;-64
2021/03/27 03:57:38;;;;;;;52.80;21.43;;;-0.30;99.90;;;;;;4204838;28;20272;-61
2021/03/27 03:59:48;;;;;;;46.13;20.53;;;-0.40;99.90;;;;;;4204832;28;20327;-62
2021/03/27 04:01:54;;;;;;;55.90;23.17;;;-0.40;99.90;;;;;;4205137;28;20265;-62
2021/03/27 04:04:06;;;;;;;53.23;22.77;;;-0.40;99.90;;;;;;4204821;28;20280;-61
2021/03/27 04:06:17;;;;;;;55.47;23.87;;;-0.50;99.90;;;;;;4205712;28;20280;-66
2021/03/27 04:08:36;;;;;;;60.10;22.87;;;-0.50;99.90;;;;;;4206047;28;20326;-65
2021/03/27 04:10:39;;;;;;;54.10;23.53;;;-0.50;99.90;;;;;;4205058;28;20822;-62
2021/03/27 04:12:54;;;;;;;55.10;23.37;;;-0.50;99.90;;;;;;4206139;28;20389;-62
2021/03/27 04:14:59;;;;;;;52.53;24.10;;;-0.60;99.90;;;;;;4204566;28;20334;-64
2021/03/27 04:17:22;;;;;;;53.07;23.93;;;-0.60;99.90;;;;;;4206401;28;20353;-64
2021/03/27 04:19:26;;;;;;;63.50;26.40;;;-0.60;99.90;;;;;;4197187;28;20284;-63
2021/03/27 04:21:33;;;;;;;53.90;24.33;;;-0.60;99.90;;;;;;4205149;28;20734;-61
2021/03/27 04:23:54;;;;;;;58.93;24.70;;;-0.60;99.90;;;;;;4204135;28;20349;-62
2021/03/27 04:26:17;;;;;;;61.90;23.40;;;-0.60;99.90;;;;;;4205757;28;20277;-65
2021/03/27 04:28:30;;;;;;;47.37;22.77;;;-0.60;99.90;;;;;;4205191;28;20377;-61
2021/03/27 04:30:50;;;;;;;47.63;21.57;;;-0.60;99.90;;;;;;4206201;28;20272;-68
2021/03/27 04:33:22;;;;;;;55.17;23.73;;;-0.50;99.90;;;;;;4208229;28;20330;-62
2021/03/27 04:35:26;;;;;;;48.93;22.93;;;-0.40;99.90;;;;;;4187535;28;20337;-62
2021/03/27 04:37:39;;;;;;;52.10;23.40;;;-0.30;99.90;;;;;;4208241;28;20325;-62
2021/03/27 04:40:11;;;;;;;57.70;22.63;;;-0.10;99.90;;;;;;4209152;28;20273;-61
2021/03/27 04:42:21;;;;;;;54.23;23.80;;;0.20;99.90;;;;;;4205682;28;20373;-64
2021/03/27 04:44:47;;;;;;;62.20;23.60;;;0.50;99.90;;;;;;4209021;28;20280;-63
2021/03/27 04:46:53;;;;;;;60.17;25.77;;;0.80;99.90;;;;;;4208791;28;20037;-67
2021/03/27 04:49:14;;;;;;;55.60;24.97;;;1.10;99.90;;;;;;4208165;28;20288;-62
2021/03/27 04:51:15;;;;;;;68.85;25.80;;;1.40;99.90;;;;;;4208823;28;20295;-62
2021/03/27 04:53:31;;;;;;;53.83;24.63;;;1.80;99.90;;;;;;4208648;28;20094;-61
2021/03/27 04:56:13;;;;;;;54.53;23.50;;;2.10;99.90;;;;;;4208882;28;20265;-63
2021/03/27 04:58:37;;;;;;;52.43;23.13;;;2.40;99.90;;;;;;4187249;28;20269;-64
2021/03/27 05:00:44;;;;;;;49.57;22.13;;;2.60;99.90;;;;;;4208836;28;20798;-69
2021/03/27 05:03:21;;;;;;;44.17;20.80;;;2.70;99.90;;;;;;4207034;28;20289;-62
2021/03/27 05:05:26;;;;;;;44.77;21.37;;;3.00;99.90;;;;;;4216518;28;20291;-67
2021/03/27 05:07:49;;;;;;;43.03;20.37;;;3.30;99.90;;;;;;4224953;28;20268;-68
2021/03/27 05:10:10;;;;;;;48.03;22.67;;;3.50;99.90;;;;;;4224395;28;20269;-67
2021/03/27 05:12:31;;;;;;;46.00;21.40;;;3.80;99.90;;;;;;4224441;28;20268;-68
2021/03/27 05:14:51;;;;;;;;;;;4.10;99.90;;;;;;4208396;28;20682;-64
2021/03/27 05:17:10;;;;;;;55.23;21.33;;;4.40;99.90;;;;;;4208066;28;19908;-69
2021/03/27 05:19:35;;;;;;;47.47;22.27;;;4.80;99.90;;;;;;4207545;28;20261;-66
2021/03/27 05:21:36;;;;;;;49.23;21.47;;;5.40;99.90;;;;;;4207185;28;20326;-67
2021/03/27 05:24:07;;;;;;;50.87;21.93;;;5.90;99.90;;;;;;4207757;28;20718;-66
2021/03/27 05:26:14;;;;;;;45.10;21.77;;;6.40;99.90;;;;;;4207867;28;20338;-61
2021/03/27 05:28:49;;;;;;;48.33;22.63;;;6.70;99.90;;;;;;4207499;28;20273;-66
2021/03/27 05:31:09;;;;;;;41.77;21.80;;;6.80;99.20;;;;;;4208294;28;20323;-63
2021/03/27 05:33:26;;;;;;;42.43;21.47;;;7.00;98.40;;;;;;4207149;28;20278;-67
2021/03/27 05:35:41;;;;;;;44.43;22.47;;;7.10;97.50;;;;;;4208895;28;20078;-63
2021/03/27 05:37:52;;;;;;;49.33;23.53;;;7.30;97.00;;;;;;4207160;28;20097;-65
2021/03/27 05:40:32;;;;;;;51.00;23.50;;;7.30;97.30;;;;;;4208279;28;20100;-64
2021/03/27 05:42:33;;;;;;;44.53;22.73;;;7.60;93.60;;;;;;4206448;28;20113;-62
2021/03/27 05:45:08;;;;;;;50.70;23.20;;;7.90;95.60;;;;;;4206881;28;20537;-62
2021/03/27 05:47:43;;;;;;;48.93;23.90;;;8.20;93.00;;;;;;4206503;28;20044;-63
2021/03/27 05:50:30;;;;;;;44.47;23.37;;;8.40;92.20;;;;;;4206975;28;20028;-65
2021/03/27 05:52:55;;;;;;;57.07;26.87;;;8.30;87.20;;;;;;4172801;28;20107;-65
2021/03/27 05:55:15;;;;;;;62.63;25.40;;;8.00;90.90;;;;;;4200959;28;20057;-62
2021/03/27 05:57:34;;;;;;;47.33;25.25;;;8.20;92.00;;;;;;4207370;28;20044;-62
2021/03/27 05:59:50;;;;;;;55.13;27.97;;;8.70;90.50;;;;;;4206809;28;20101;-63
2021/03/27 06:02:04;;;;;;;56.90;26.40;;;9.50;86.00;;;;;;4207987;28;20032;-64
2021/03/27 06:04:27;;;;;;;55.07;25.50;;;9.70;85.20;;;;;;4206728;28;20144;-67
2021/03/27 06:06:56;;;;;;;55.33;25.03;;;9.60;80.60;;;;;;4190597;28;20055;-62
2021/03/27 06:09:38;;;;;;;61.57;25.80;;;9.20;82.20;;;;;;4197612;28;20028;-64
2021/03/27 06:12:25;;;;;;;57.53;26.80;;;8.90;81.70;;;;;;4189474;28;20513;-61
2021/03/27 06:14:28;;;;;;;56.73;23.93;;;8.50;80.50;;;;;;4171200;28;20025;-62
2021/03/27 06:16:47;;;;;;;61.33;25.10;;;8.50;83.50;;;;;;4193462;28;20109;-62
2021/03/27 06:19:15;;;;;;;60.63;26.37;;;8.70;81.50;;;;;;4208054;28;20061;-61
2021/03/27 06:21:39;;;;;;;53.90;26.63;;;8.50;80.10;;;;;;4206502;28;20028;-62
2021/03/27 06:23:51;;;;;;;54.97;26.37;;;8.30;81.90;;;;;;4206402;28;20617;-64
2021/03/27 06:26:15;;;;;;;68.00;26.63;;;8.40;82.10;;;;;;4206119;28;20447;-65
2021/03/27 06:28:49;;;;;;;67.07;27.80;;;8.60;80.10;;;;;;4207229;28;20040;-61
2021/03/27 06:31:05;;;;;;;66.37;28.77;;;8.60;80.90;;;;;;4185048;28;20366;-63
2021/03/27 06:33:31;;;;;;;62.37;28.63;;;8.50;81.60;;;;;;4206329;28;20462;-65
2021/03/27 06:35:44;;;;;;;59.63;29.37;;;8.20;81.60;;;;;;4207091;28;20040;-63
2021/03/27 06:38:00;;;;;;;64.70;28.67;;;8.20;82.50;;;;;;4205386;28;20078;-63
2021/03/27 06:40:09;;;;;;;60.30;27.70;;;8.40;82.30;;;;;;4206673;28;20024;-67
2021/03/27 06:42:28;;;;;;;60.03;27.17;;;9.00;81.20;;;;;;4205719;28;20040;-62
2021/03/27 06:44:48;;;;;;;49.53;25.53;;;9.80;79.20;;;;;;4206876;28;20601;-62
2021/03/27 06:47:27;;;;;;;53.43;25.27;;;10.00;77.00;;;;;;4205655;28;20053;-65
2021/03/27 06:49:47;;;;;;;52.53;25.93;;;10.00;74.40;;;;;;4206969;28;20073;-62
2021/03/27 06:51:51;;;;;;;55.90;26.17;;;10.30;76.00;;;;;;4205673;28;20070;-67
2021/03/27 06:54:30;;;;;;;58.13;25.97;;;10.70;74.80;;;;;;4206177;28;20035;-63
2021/03/27 06:57:05;;;;;;;56.63;25.57;;;11.20;71.90;;;;;;4205693;28;20543;-70
2021/03/27 06:59:43;;;;;;;43.33;22.43;;;11.70;70.90;;;;;;4205029;28;20113;-63
2021/03/27 07:02:26;;;;;;;47.70;23.80;;;12.00;68.50;;;;;;4206639;28;20073;-68
2021/03/27 07:04:27;;;;;;;53.10;25.13;;;12.20;67.80;;;;;;4184862;28;20051;-66
2021/03/27 07:06:51;;;;;;;49.93;25.40;;;12.00;68.40;;;;;;4206062;28;20077;-64
2021/03/27 07:09:33;;;;;;;49.77;24.20;;;11.40;68.20;;;;;;4185079;28;20496;-66
2021/03/27 07:11:52;;;;;;;49.13;24.07;;;11.20;69.20;;;;;;4205460;28;20044;-66
2021/03/27 07:14:37;;;;;;;49.43;24.20;;;10.70;70.10;;;;;;4206509;28;20020;-67
2021/03/27 07:17:03;;;;;;;45.07;22.13;;;10.80;72.50;;;;;;4205015;28;20093;-64
2021/03/27 07:19:23;;;;;;;37.60;20.83;;;11.10;70.20;;;;;;4206606;28;20036;-69
2021/03/27 07:21:27;;;;;;;50.50;23.50;;;11.20;70.60;;;;;;4204943;28;20028;-63
2021/03/27 07:24:02;;;;;;;42.37;21.20;;;11.10;70.30;;;;;;4206367;28;20066;-65
2021/03/27 07:26:40;;;;;;;45.40;21.63;;;10.90;70.10;;;;;;4204961;28;20028;-64
2021/03/27 07:29:30;;;;;;;46.93;22.70;;;10.50;70.50;;;;;;4206229;28;20028;-67
2021/03/27 07:31:44;;;;;;;54.40;23.67;;;10.10;71.50;;;;;;4205861;28;20093;-64
2021/03/27 07:34:21;;;;;;;50.13;24.63;;;10.10;72.60;;;;;;4204826;28;20036;-64
2021/03/27 07:37:03;;;;;;;64.53;30.67;;;10.10;72.70;;;;;;4206014;28;21166;-63
2021/03/27 07:39:34;;;;;;;43.83;22.97;;;9.90;73.20;;;;;;4204839;28;20024;-65
2021/03/27 07:41:56;;;;;;;62.47;30.10;;;9.50;73.20;;;;;;4205259;28;20555;-65
2021/03/27 07:44:33;;;;;;;54.33;27.80;;;9.30;75.70;;;;;;4205105;28;20044;-66
2021/03/27 07:46:52;;;;;;;52.00;26.10;;;9.40;75.60;;;;;;4204632;28;20077;-64
2021/03/27 07:49:28;;;;;;;48.17;25.70;;;9.20;76.40;;;;;;4205802;28;20858;-65
2021/03/27 07:52:23;;;;;;;55.77;27.30;;;8.90;77.50;;;;;;4179704;28;20065;-65
2021/03/27 07:54:48;;;;;;;48.30;24.23;;;8.80;78.40;;;;;;4169740;28;20087;-66
2021/03/27 07:57:08;;;;;;;46.63;21.67;;;8.70;79.00;;;;;;4195639;28;20044;-72
2021/03/27 07:59:31;;;;;;;43.22;22.83;;;8.50;79.20;;;;;;4204418;28;20032;-65
2021/03/27 08:02:00;;;;;;;44.77;22.40;;;8.50;80.30;;;;;;4205404;28;20160;-63
2021/03/27 08:04:19;;;;;;;44.27;20.43;;;8.50;81.30;;;;;;4204682;28;20036;-61
2021/03/27 08:06:38;;;;;;;44.23;23.03;;;8.40;81.80;;;;;;4204537;28;20048;-62
2021/03/27 08:08:58;;;;;;;43.77;22.47;;;8.50;82.10;;;;;;4204315;28;20385;-64
2021/03/27 08:11:07;;;;;;;45.40;22.53;;;8.80;81.60;;;;;;4205534;28;20085;-60
2021/03/27 08:13:09;;;;;;;51.53;24.83;;;9.00;81.20;;;;;;4204507;28;20268;-60
2021/03/27 08:15:34;;;;;;;47.77;23.10;;;9.10;81.50;;;;;;4205463;28;20058;-62
2021/03/27 08:18:06;;;;;;;44.93;23.13;;;9.30;81.20;;;;;;4204367;28;20024;-61
2021/03/27 08:20:40;;;;;;;49.73;22.93;;;9.50;81.50;;;;;;4216305;28;20043;-60
2021/03/27 08:22:55;;;;;;;47.87;24.27;;;9.50;81.00;;;;;;4221407;28;20069;-59
2021/03/27 08:25:02;;;;;;;384.60;210.27;;;9.50;81.20;;;;;;4222076;28;20047;-60
2021/03/27 08:27:31;;;;;;;50.13;25.60;;;9.40;81.40;;;;;;4221801;28;20043;-64
2021/03/27 08:29:45;;;;;;;50.70;25.07;;;9.50;81.30;;;;;;4221277;28;20497;-57
2021/03/27 08:32:11;;;;;;;254.20;117.70;;;9.50;81.20;;;;;;4222019;28;20085;-64
2021/03/27 08:34:38;;;;;;;50.13;24.53;;;9.60;81.60;;;;;;4221513;28;20046;-62
2021/03/27 08:37:00;;;;;;;46.10;23.73;;;9.70;81.30;;;;;;4202606;28;20039;-67
2021/03/27 08:39:04;;;;;;;44.93;23.90;;;9.70;80.90;;;;;;4221020;28;20437;-61
2021/03/27 08:41:17;;;;;;;43.87;23.03;;;9.70;81.00;;;;;;4222123;28;20460;-63
2021/03/27 08:44:04;;;;;;;45.43;23.13;;;9.80;80.40;;;;;;4219688;28;20036;-61
2021/03/27 08:46:24;;;;;;;46.97;24.00;;;10.10;80.20;;;;;;4205214;28;20028;-57
2021/03/27 08:49:03;;;;;;;50.07;23.57;;;10.20;79.80;;;;;;4203912;28;20032;-63
2021/03/27 08:51:26;;;;;;;50.97;25.13;;;10.30;81.20;;;;;;4168841;28;20036;-62
2021/03/27 08:53:35;;;;;;;55.00;25.70;;;10.40;81.60;;;;;;4167724;28;20492;-61
2021/03/27 08:55:58;;;;;;;45.78;24.27;;;10.40;81.90;;;;;;4172016;28;20053;-61
2021/03/27 08:58:37;;;;;;;47.73;24.47;;;10.50;82.00;;;;;;4202486;28;20761;-62
2021/03/27 09:00:50;;;;;;;47.53;24.33;;;10.70;81.70;;;;;;4203737;28;20439;-62
2021/03/27 09:03:29;;;;;;;51.33;24.40;;;10.90;81.10;;;;;;4204999;28;20399;-63
2021/03/27 09:05:54;;;;;;;48.83;23.23;;;11.00;81.20;;;;;;4204077;28;20071;-62
2021/03/27 09:07:55;;;;;;;47.57;22.53;;;11.00;80.60;;;;;;4205295;28;20036;-61
2021/03/27 09:10:21;;;;;;;44.73;22.47;;;11.10;80.40;;;;;;4203999;28;20036;-62
2021/03/27 09:12:34;;;;;;;43.37;22.17;;;11.30;79.60;;;;;;4204802;28;20032;-62
2021/03/27 09:15:02;;;;;;;43.53;21.33;;;11.60;79.20;;;;;;4204125;28;20016;-61
2021/03/27 09:17:18;;;;;;;45.57;21.70;;;11.70;77.90;;;;;;4203297;28;20422;-63
2021/03/27 09:19:56;;;;;;;39.03;21.80;;;11.90;77.90;;;;;;4207844;28;20088;-62
2021/03/27 09:22:12;;;;;;;41.53;19.70;;;12.10;75.70;;;;;;4206816;28;20540;-65
2021/03/27 09:24:29;;;;;;;40.67;20.37;;;12.30;74.60;;;;;;4207326;28;20109;-62
2021/03/27 09:27:01;;;;;;;39.67;19.63;;;12.40;74.00;;;;;;4207194;28;20044;-69
2021/03/27 09:29:27;;;;;;;37.80;20.27;;;12.40;72.60;;;;;;4208382;28;20091;-65
2021/03/27 09:31:46;;;;;;;40.33;20.10;;;12.40;72.90;;;;;;4207291;28;20353;-62
2021/03/27 09:34:13;;;;;;;40.57;19.93;;;12.50;72.00;;;;;;4208002;28;20086;-63
2021/03/27 09:36:38;;;;;;;38.33;19.87;;;12.60;72.10;;;;;;4207409;28;20028;-64
2021/03/27 09:39:04;;;;;;;39.07;20.50;;;12.60;72.10;;;;;;4206486;28;20082;-61
2021/03/27 09:41:39;;;;;;;38.43;19.63;;;12.60;71.00;;;;;;4207345;28;20084;-64
2021/03/27 09:44:02;;;;;;;38.53;19.67;;;12.80;70.70;;;;;;4206515;28;20039;-62
2021/03/27 09:46:24;;;;;;;42.37;20.17;;;13.00;70.00;;;;;;4207781;28;20028;-66
2021/03/27 09:48:51;;;;;;;33.57;19.10;;;13.10;69.30;;;;;;4207103;28;20040;-64
2021/03/27 09:51:17;;;;;;;36.53;19.57;;;13.20;69.60;;;;;;4207118;28;20040;-64
2021/03/27 09:54:06;;;;;;;33.40;18.70;;;13.50;69.40;;;;;;4206290;28;20112;-64
2021/03/27 09:56:31;;;;;;;38.90;19.10;;;13.90;67.90;;;;;;4170681;28;20045;-65
2021/03/27 09:58:39;;;;;;;38.30;19.13;;;14.00;66.60;;;;;;4207705;28;20346;-64
2021/03/27 10:00:52;;;;;;;31.40;17.87;;;14.00;66.30;;;;;;4206529;28;20486;-66
2021/03/27 10:02:56;;;;;;;31.83;16.97;;;13.70;65.40;;;;;;4208014;28;20032;-64
2021/03/27 10:05:12;;;;;;;33.33;18.20;;;13.50;65.50;;;;;;4206505;28;20089;-65
2021/03/27 10:07:26;;;;;;;38.70;18.07;;;13.60;64.90;;;;;;4191869;28;20028;-62
2021/03/27 10:10:03;;;;;;;34.07;18.70;;;13.40;63.70;;;;;;4190233;28;20085;-64
2021/03/27 10:12:27;;;;;;;37.60;18.87;;;13.40;64.60;;;;;;4190811;28;20036;-63
2021/03/27 10:14:34;;;;;;;31.33;17.43;;;13.80;64.60;;;;;;4189355;28;20109;-61
2021/03/27 10:17:15;;;;;;;34.13;16.97;;;14.00;63.10;;;;;;4190333;28;20021;-64
2021/03/27 10:19:19;;;;;;;33.13;16.10;;;14.20;62.60;;;;;;4182059;28;20051;-63
2021/03/27 10:21:35;;;;;;;27.67;15.27;;;14.20;61.20;;;;;;4190599;28;20335;-65
2021/03/27 10:23:52;;;;;;;28.13;15.43;;;14.10;61.20;;;;;;4189810;28;20028;-63
2021/03/27 10:26:08;;;;;;;27.77;15.07;;;14.20;59.30;;;;;;4189885;28;20024;-64
2021/03/27 10:28:30;;;;;;;26.70;14.63;;;13.90;59.90;;;;;;4190101;28;20149;-64
2021/03/27 10:31:06;;;;;;;23.27;13.63;;;13.90;59.10;;;;;;4189208;28;20032;-65
2021/03/27 10:33:32;;;;;;;32.73;15.13;;;13.90;61.70;;;;;;4189060;28;20045;-64
2021/03/27 10:35:46;;;;;;;28.27;14.47;;;14.30;60.00;;;;;;4189527;28;20042;-64
2021/03/27 10:38:21;;;;;;;27.53;13.90;;;14.60;60.30;;;;;;4190163;28;20077;-65
2021/03/27 10:40:36;;;;;;;26.90;14.43;;;14.70;59.10;;;;;;4188787;28;20058;-63
2021/03/27 10:42:52;;;;;;;25.13;13.70;;;14.60;56.20;;;;;;4216059;28;20085;-65
2021/03/27 10:45:08;;;;;;;24.43;13.67;;;14.50;57.00;;;;;;4222719;28;20027;-66
2021/03/27 10:47:44;;;;;;;27.80;13.90;;;14.60;59.00;;;;;;4223392;28;20044;-64
2021/03/27 10:50:26;;;;;;;20.20;12.03;;;14.70;57.30;;;;;;4222166;28;20036;-64
2021/03/27 10:52:30;;;;;;;26.67;13.23;;;15.00;57.10;;;;;;4223033;28;20024;-65
2021/03/27 10:54:51;;;;;;;29.57;13.60;;;15.20;57.10;;;;;;4223406;28;20866;-64
2021/03/27 10:57:06;;;;;;;21.88;12.13;;;15.20;56.70;;;;;;4222696;28;20053;-63
2021/03/27 10:59:34;;;;;;;27.87;14.50;;;15.20;56.00;;;;;;4223098;28;20096;-65
2021/03/27 11:02:15;;;;;;;23.43;13.33;;;14.80;54.20;;;;;;4222055;28;20116;-64
2021/03/27 11:04:47;;;;;;;26.20;13.20;;;14.40;53.80;;;;;;4223122;28;20039;-64
2021/03/27 11:07:13;;;;;;;24.83;13.37;;;14.30;53.70;;;;;;4209502;28;20032;-64
2021/03/27 11:09:38;;;;;;;27.90;14.17;;;14.10;55.10;;;;;;4205648;28;20062;-65
2021/03/27 11:12:04;;;;;;;28.47;14.13;;;14.00;53.00;;;;;;4205293;28;20191;-67
2021/03/27 11:15:02;;;;;;;23.20;12.80;;;14.10;53.40;;;;;;4206034;28;20509;-64
2021/03/27 11:17:19;;;;;;;29.50;13.30;;;14.00;53.50;;;;;;4198939;28;20556;-66
2021/03/27 11:19:26;;;;;;;25.60;14.07;;;14.00;53.80;;;;;;4222168;28;20035;-66
2021/03/27 11:22:04;;;;;;;21.67;13.67;;;14.00;54.20;;;;;;4223190;28;20092;-65
2021/03/27 11:24:14;;;;;;;28.23;13.60;;;14.00;53.30;;;;;;4222140;28;20039;-67
2021/03/27 11:26:49;;;;;;;29.03;12.77;;;14.20;53.70;;;;;;4222668;28;20093;-65
2021/03/27 11:29:10;;;;;;;23.10;12.60;;;14.40;53.60;;;;;;4222905;28;20541;-66
2021/03/27 11:31:32;;;;;;;24.27;12.90;;;14.60;52.00;;;;;;4222259;28;20027;-66
2021/03/27 11:33:54;;;;;;;21.40;11.63;;;14.40;51.60;;;;;;4216305;28;20036;-64
2021/03/27 11:36:21;;;;;;;20.17;12.00;;;14.30;51.80;;;;;;4204172;28;20172;-65
2021/03/27 11:38:43;;;;;;;20.47;10.63;;;14.30;50.60;;;;;;4206333;28;20105;-66
2021/03/27 11:40:55;;;;;;;19.17;10.27;;;14.30;50.70;;;;;;4205297;28;20434;-65
2021/03/27 11:43:40;;;;;;;23.67;11.73;;;14.50;51.50;;;;;;4205160;28;20165;-64
2021/03/27 11:45:50;;;;;;;21.73;10.93;;;14.70;50.10;;;;;;4204909;28;20048;-63
2021/03/27 11:48:02;;;;;;;19.53;11.33;;;14.60;49.40;;;;;;4205752;28;20036;-62
2021/03/27 11:50:07;;;;;;;20.20;11.20;;;14.50;48.60;;;;;;4204867;28;20261;-62
2021/03/27 11:52:23;;;;;;;20.90;11.73;;;14.60;49.90;;;;;;4205478;28;20109;-64
2021/03/27 11:54:33;;;;;;;22.20;11.73;;;14.70;50.10;;;;;;4188144;28;20080;-62
2021/03/27 11:56:57;;;;;;;22.27;11.33;;;14.70;49.80;;;;;;4198612;28;20074;-68
2021/03/27 12:01:40;;;;;;;18.67;10.77;;;14.90;47.90;;;;;;4204947;28;20121;-65